createdAt,value
2023-05-06T00:01:24.376Z,9.90
2023-05-06T00:03:51.699Z,9.75
2023-05-06T00:06:18.840Z,7.70
2023-05-06T00:08:46.707Z,7.97
2023-05-06T00:11:13.889Z,6.95
2023-05-06T00:13:42.149Z,7.07
2023-05-06T00:16:09.475Z,9.05
2023-05-06T00:18:36.483Z,8.52
2023-05-06T00:21:03.377Z,7.05
2023-05-06T00:23:30.492Z,10.02
2023-05-06T00:25:57.376Z,10.95
2023-05-06T00:28:24.235Z,7.90
2023-05-06T00:30:52.540Z,7.38
2023-05-06T00:33:19.392Z,7.68
2023-05-06T00:35:46.291Z,10.63
2023-05-06T00:38:15.272Z,6.53
2023-05-06T00:40:42.928Z,7.72
2023-05-06T00:43:10.066Z,8.50
2023-05-06T00:45:37.172Z,9.95
2023-05-06T00:48:06.935Z,8.93
2023-05-06T00:50:34.814Z,9.13
2023-05-06T00:53:03.717Z,9.63
2023-05-06T00:55:31.156Z,8.95
2023-05-06T00:57:58.375Z,6.43
2023-05-06T01:00:25.692Z,8.00
2023-05-06T01:02:52.765Z,8.43
2023-05-06T01:05:22.935Z,8.68
2023-05-06T01:07:56.219Z,8.70
2023-05-06T01:10:29.230Z,7.55
2023-05-06T01:13:01.365Z,8.38
2023-05-06T01:15:34.258Z,6.82
2023-05-06T01:18:02.407Z,10.45
2023-05-06T01:20:31.838Z,11.27
2023-05-06T01:23:02.131Z,8.07
2023-05-06T01:25:32.291Z,9.07
2023-05-06T01:27:59.234Z,9.35
2023-05-06T01:30:31.197Z,12.27
2023-05-06T01:33:03.389Z,12.02
2023-05-06T01:35:36.343Z,10.70
2023-05-06T01:38:11.202Z,10.85
2023-05-06T01:40:41.418Z,10.82
2023-05-06T01:43:08.842Z,10.15
2023-05-06T01:45:36.879Z,10.82
2023-05-06T01:48:04.596Z,10.65
2023-05-06T01:50:32.621Z,10.57
2023-05-06T01:53:02.232Z,8.95
2023-05-06T01:55:29.544Z,9.90
2023-05-06T01:57:57.896Z,8.05
2023-05-06T02:00:25.520Z,6.68
2023-05-06T02:02:52.828Z,14.02
2023-05-06T02:05:20.794Z,10.23
2023-05-06T02:07:51.807Z,8.50
2023-05-06T02:10:19.565Z,10.07
2023-05-06T02:12:52.134Z,6.53
2023-05-06T02:15:20.624Z,6.25
2023-05-06T02:17:48.313Z,6.00
2023-05-06T02:20:15.304Z,5.20
2023-05-06T02:22:42.201Z,6.63
2023-05-06T02:25:10.085Z,5.25
2023-05-06T02:27:37.679Z,6.25
2023-05-06T02:30:06.271Z,6.22
2023-05-06T02:32:34.582Z,5.68
2023-05-06T02:35:01.597Z,6.20
2023-05-06T02:37:28.657Z,7.38
2023-05-06T02:39:55.603Z,6.38
2023-05-06T02:42:22.501Z,7.40
2023-05-06T02:44:49.482Z,7.20
2023-05-06T02:47:16.461Z,8.70
2023-05-06T02:49:46.019Z,8.85
2023-05-06T02:52:12.984Z,9.70
2023-05-06T02:54:39.974Z,9.90
2023-05-06T02:57:06.867Z,6.15
2023-05-06T02:59:35.981Z,7.00
2023-05-06T03:02:03.039Z,9.98
2023-05-06T03:04:30.008Z,7.93
2023-05-06T03:06:58.345Z,9.77
2023-05-06T03:09:25.516Z,9.05
2023-05-06T03:11:53.079Z,10.60
2023-05-06T03:14:21.412Z,6.38
2023-05-06T03:16:49.310Z,6.82
2023-05-06T03:19:16.399Z,6.43
2023-05-06T03:21:44.813Z,7.28
2023-05-06T03:24:13.297Z,7.38
2023-05-06T03:26:40.196Z,7.60
2023-05-06T03:29:08.612Z,8.57
2023-05-06T03:31:36.209Z,9.25
2023-05-06T03:34:03.279Z,8.30
2023-05-06T03:36:31.697Z,6.72
2023-05-06T03:38:58.807Z,6.28
2023-05-06T03:41:28.358Z,10.90
2023-05-06T03:43:55.891Z,12.13
2023-05-06T03:46:26.323Z,11.25
2023-05-06T03:48:53.735Z,15.27
2023-05-06T03:51:21.115Z,13.98
2023-05-06T03:53:48.152Z,10.98
2023-05-06T03:56:18.139Z,11.40
2023-05-06T03:58:49.047Z,11.65
2023-05-06T04:01:18.222Z,11.98
2023-05-06T04:03:45.280Z,8.93
2023-05-06T04:06:12.923Z,8.07
2023-05-06T04:08:39.906Z,10.05
2023-05-06T04:11:07.135Z,10.77
2023-05-06T04:13:35.126Z,9.82
2023-05-06T04:16:07.805Z,10.25
2023-05-06T04:18:39.811Z,9.10
2023-05-06T04:21:13.377Z,10.90
2023-05-06T04:23:42.766Z,8.52
2023-05-06T04:26:11.634Z,9.35
2023-05-06T04:28:41.262Z,11.10
2023-05-06T04:31:11.086Z,9.90
2023-05-06T04:33:44.977Z,8.57
2023-05-06T04:36:15.926Z,9.02
2023-05-06T04:38:53.290Z,8.68
2023-05-06T04:41:20.793Z,7.97
2023-05-06T04:43:47.770Z,11.65
2023-05-06T04:46:21.612Z,11.10
2023-05-06T04:48:49.270Z,11.57
2023-05-06T04:51:18.030Z,10.25
2023-05-06T04:53:45.668Z,9.50
2023-05-06T04:56:12.815Z,9.60
2023-05-06T04:58:39.825Z,12.07
2023-05-06T05:01:08.839Z,9.27
2023-05-06T05:03:37.304Z,10.63
2023-05-06T05:06:05.989Z,9.48
2023-05-06T05:08:33.044Z,11.20
2023-05-06T05:11:00.982Z,9.05
2023-05-06T05:13:29.544Z,8.65
2023-05-06T05:15:57.068Z,7.95
2023-05-06T05:18:29.250Z,8.98
2023-05-06T05:21:02.344Z,9.80
2023-05-06T05:23:30.112Z,9.23
2023-05-06T05:25:57.091Z,8.40
2023-05-06T05:28:24.454Z,6.72
2023-05-06T05:30:52.288Z,7.20
2023-05-06T05:33:19.748Z,7.75
2023-05-06T05:35:46.970Z,8.93
2023-05-06T05:38:16.670Z,7.40
2023-05-06T05:40:44.255Z,10.73
2023-05-06T05:43:11.527Z,7.57
2023-05-06T05:45:40.943Z,7.85
2023-05-06T05:48:09.696Z,8.30
2023-05-06T05:50:36.726Z,9.05
2023-05-06T05:53:05.652Z,5.93
2023-05-06T05:55:36.980Z,8.65
2023-05-06T05:58:04.024Z,9.27
2023-05-06T06:00:32.748Z,8.70
2023-05-06T06:03:06.907Z,9.75
2023-05-06T06:05:33.981Z,9.30
2023-05-06T06:08:03.544Z,7.97
2023-05-06T06:10:31.301Z,8.15
2023-05-06T06:13:03.182Z,9.02
2023-05-06T06:15:32.740Z,8.25
2023-05-06T06:17:59.745Z,8.95
2023-05-06T06:20:28.597Z,9.43
2023-05-06T06:22:55.577Z,8.65
2023-05-06T06:25:22.614Z,8.02
2023-05-06T06:27:49.542Z,10.32
2023-05-06T06:30:17.906Z,9.18
2023-05-06T06:35:14.912Z,10.45
2023-05-06T06:37:41.899Z,9.25
2023-05-06T06:40:10.437Z,12.60
2023-05-06T06:42:37.908Z,9.68
2023-05-06T06:45:22.257Z,11.88
2023-05-06T06:47:49.195Z,9.75
2023-05-06T06:50:16.390Z,10.25
2023-05-06T06:52:43.297Z,12.75
2023-05-06T06:55:10.475Z,9.82
2023-05-06T06:57:39.118Z,9.65
2023-05-06T07:00:12.047Z,10.88
2023-05-06T07:02:40.635Z,12.75
2023-05-06T07:05:08.292Z,9.27
2023-05-06T07:07:35.475Z,9.13
2023-05-06T07:10:02.375Z,9.65
2023-05-06T07:12:29.264Z,8.40
2023-05-06T07:14:56.143Z,9.50
2023-05-06T07:17:23.386Z,8.18
2023-05-06T07:19:51.858Z,7.70
2023-05-06T07:22:18.789Z,7.32
2023-05-06T07:24:45.829Z,7.20
2023-05-06T07:27:12.810Z,5.50
2023-05-06T07:29:39.718Z,9.57
2023-05-06T07:32:06.672Z,6.40
2023-05-06T07:34:34.634Z,5.82
2023-05-06T07:37:03.967Z,5.65
2023-05-06T07:39:31.225Z,7.15
2023-05-06T07:41:58.368Z,9.48
2023-05-06T07:44:25.360Z,6.30
2023-05-06T07:46:52.416Z,6.40
2023-05-06T07:49:19.497Z,7.45
2023-05-06T07:51:46.397Z,5.22
2023-05-06T07:54:14.786Z,4.43
2023-05-06T07:56:41.714Z,7.07
2023-05-06T07:59:08.638Z,6.78
2023-05-06T08:01:36.113Z,5.35
2023-05-06T08:04:03.140Z,6.40
2023-05-06T08:06:30.237Z,4.85
2023-05-06T08:08:57.122Z,6.03
2023-05-06T08:11:25.469Z,4.90
2023-05-06T08:13:52.375Z,6.95
2023-05-06T08:16:19.310Z,9.32
2023-05-06T08:18:46.235Z,10.27
2023-05-06T08:21:13.152Z,6.13
2023-05-06T08:23:40.092Z,5.97
2023-05-06T08:26:07.074Z,4.32
2023-05-06T08:28:35.415Z,7.43
2023-05-06T08:31:02.282Z,9.63
2023-05-06T08:33:30.763Z,5.38
2023-05-06T08:35:58.127Z,7.70
2023-05-06T08:38:26.072Z,7.50
2023-05-06T08:40:54.468Z,7.72
2023-05-06T08:43:22.325Z,7.55
2023-05-06T08:45:50.790Z,6.20
2023-05-06T08:48:18.115Z,5.65
2023-05-06T08:50:45.289Z,7.10
2023-05-06T08:53:13.527Z,6.88
2023-05-06T08:55:41.541Z,8.45
2023-05-06T09:00:35.614Z,7.18
2023-05-06T09:03:04.329Z,6.07
2023-05-06T09:05:31.350Z,8.88
2023-05-06T09:07:58.286Z,6.07
2023-05-06T09:10:25.205Z,5.47
2023-05-06T09:12:54.473Z,5.72
2023-05-06T09:15:25.036Z,8.43
2023-05-06T09:17:52.986Z,8.77
2023-05-06T09:22:48.072Z,7.07
2023-05-06T09:25:15.012Z,5.97
2023-05-06T09:27:41.963Z,7.13
2023-05-06T09:30:12.128Z,8.45
2023-05-06T09:32:40.528Z,6.00
2023-05-06T09:35:09.394Z,6.03
2023-05-06T09:37:38.003Z,7.93
2023-05-06T09:40:06.079Z,6.60
2023-05-06T09:42:33.457Z,6.50
2023-05-06T09:45:02.312Z,9.30
2023-05-06T09:47:33.240Z,6.13
2023-05-06T09:50:01.309Z,6.85
2023-05-06T09:52:28.986Z,5.03
2023-05-06T09:54:57.396Z,6.55
2023-05-06T09:57:24.616Z,7.82
2023-05-06T09:59:54.604Z,7.63
2023-05-06T10:02:23.304Z,6.63
2023-05-06T10:04:51.517Z,8.70
2023-05-06T10:07:22.929Z,6.53
2023-05-06T10:09:51.461Z,9.30
2023-05-06T10:12:20.413Z,4.85
2023-05-06T10:14:47.482Z,3.83
2023-05-06T10:17:14.780Z,8.95
2023-05-06T10:19:45.047Z,6.10
2023-05-06T10:22:16.747Z,3.38
2023-05-06T10:24:48.218Z,5.05
2023-05-06T10:27:18.913Z,5.50
2023-05-06T10:29:46.550Z,4.50
2023-05-06T10:32:13.736Z,5.00
2023-05-06T10:34:47.864Z,4.93
2023-05-06T10:37:15.456Z,6.28
2023-05-06T10:39:42.518Z,4.40
2023-05-06T10:42:10.622Z,4.57
2023-05-06T10:44:58.040Z,5.53
2023-05-06T10:47:25.210Z,4.97
2023-05-06T10:50:23.463Z,3.90
2023-05-06T10:52:52.526Z,5.88
2023-05-06T10:55:30.443Z,6.00
2023-05-06T10:57:59.467Z,4.10
2023-05-06T11:00:31.079Z,3.72
2023-05-06T11:02:58.984Z,5.72
2023-05-06T11:05:26.010Z,3.75
2023-05-06T11:07:53.297Z,4.50
2023-05-06T11:10:33.074Z,3.13
2023-05-06T11:13:19.202Z,4.20
2023-05-06T11:15:50.837Z,5.22
2023-05-06T11:18:42.998Z,2.80
2023-05-06T11:21:38.160Z,5.57
2023-05-06T11:24:09.359Z,6.70
2023-05-06T11:26:36.420Z,3.88
2023-05-06T11:29:04.346Z,4.53
2023-05-06T11:31:39.904Z,7.88
2023-05-06T11:34:09.128Z,9.13
2023-05-06T11:36:37.312Z,4.50
2023-05-06T11:39:10.140Z,3.60
2023-05-06T11:41:39.704Z,7.25
2023-05-06T11:44:06.710Z,3.78
2023-05-06T11:46:35.524Z,4.80
2023-05-06T11:49:02.517Z,4.20
2023-05-06T11:51:29.412Z,2.95
2023-05-06T11:54:05.752Z,3.22
2023-05-06T11:56:45.555Z,5.38
2023-05-06T11:59:12.843Z,3.78
2023-05-06T12:01:43.522Z,3.78
2023-05-06T12:04:11.438Z,3.58
2023-05-06T12:06:39.043Z,3.33
2023-05-06T12:09:07.770Z,2.65
2023-05-06T12:11:35.518Z,3.85
2023-05-06T12:16:29.952Z,3.25
2023-05-06T12:18:58.296Z,4.35
2023-05-06T12:21:25.343Z,3.22
2023-05-06T12:23:53.035Z,6.55
2023-05-06T12:26:20.412Z,3.75
2023-05-06T12:28:47.306Z,3.50
2023-05-06T12:31:21.108Z,3.88
2023-05-06T12:33:51.481Z,5.38
2023-05-06T12:36:19.890Z,3.95
2023-05-06T12:38:51.273Z,7.03
2023-05-06T12:41:18.787Z,3.95
2023-05-06T12:43:45.789Z,2.85
2023-05-06T12:46:14.505Z,4.15
2023-05-06T12:48:42.392Z,3.78
2023-05-06T12:51:20.912Z,5.43
2023-05-06T12:53:47.869Z,6.22
2023-05-06T12:56:14.788Z,5.15
2023-05-06T12:58:41.813Z,9.05
2023-05-06T13:01:08.747Z,7.97
2023-05-06T13:03:38.361Z,3.53
2023-05-06T13:06:05.932Z,4.88
2023-05-06T13:08:34.190Z,5.68
2023-05-06T13:11:02.522Z,2.67
2023-05-06T13:13:29.588Z,3.83
2023-05-06T13:15:56.636Z,6.28
2023-05-06T13:18:23.587Z,11.32
2023-05-06T13:20:51.320Z,7.13
2023-05-06T13:23:19.553Z,10.88
2023-05-06T13:26:02.825Z,8.60
2023-05-06T13:28:32.782Z,4.47
2023-05-06T13:30:59.886Z,6.78
2023-05-06T13:33:26.865Z,3.88
2023-05-06T13:35:53.764Z,4.40
2023-05-06T13:38:21.100Z,3.15
2023-05-06T13:40:51.558Z,5.57
2023-05-06T13:43:18.686Z,7.85
2023-05-06T13:45:45.848Z,5.93
2023-05-06T13:48:12.998Z,4.65
2023-05-06T13:50:41.568Z,2.70
2023-05-06T13:53:08.479Z,3.38
2023-05-06T13:55:36.245Z,3.67
2023-05-06T13:58:05.580Z,3.45
2023-05-06T14:00:32.609Z,3.67
2023-05-06T14:02:59.666Z,4.75
2023-05-06T14:05:26.798Z,3.88
2023-05-06T14:07:53.949Z,3.90
2023-05-06T14:10:21.132Z,10.73
2023-05-06T14:12:48.356Z,6.05
2023-05-06T14:15:16.766Z,6.65
2023-05-06T14:17:43.773Z,2.03
2023-05-06T14:20:11.475Z,3.38
2023-05-06T14:22:40.892Z,3.00
2023-05-06T14:25:09.402Z,2.65
2023-05-06T14:27:36.818Z,3.50
2023-05-06T14:30:09.456Z,4.20
2023-05-06T14:32:38.298Z,5.65
2023-05-06T14:35:06.405Z,4.50
2023-05-06T14:37:33.271Z,4.97
2023-05-06T14:40:00.289Z,2.75
2023-05-06T14:42:27.175Z,2.90
2023-05-06T14:44:55.039Z,2.38
2023-05-06T14:49:50.379Z,4.28
2023-05-06T14:52:17.367Z,3.42
2023-05-06T14:54:44.827Z,2.25
2023-05-06T14:57:12.294Z,3.42
2023-05-06T14:59:39.315Z,2.92
2023-05-06T15:02:08.601Z,2.60
2023-05-06T15:04:36.256Z,3.53
2023-05-06T15:07:04.686Z,3.53
2023-05-06T15:09:31.616Z,3.00
2023-05-06T15:11:58.581Z,6.60
2023-05-06T15:14:25.467Z,5.85
2023-05-06T15:16:54.884Z,5.10
2023-05-06T15:19:21.951Z,4.20
2023-05-06T15:21:48.880Z,2.90
2023-05-06T15:24:17.230Z,3.17
2023-05-06T15:26:44.193Z,3.05
2023-05-06T15:29:11.130Z,3.35
2023-05-06T15:31:41.285Z,3.38
2023-05-06T15:34:09.582Z,5.07
2023-05-06T15:36:36.816Z,3.15
2023-05-06T15:39:04.024Z,3.28
2023-05-06T15:41:33.975Z,4.03
2023-05-06T15:44:02.688Z,3.05
2023-05-06T15:46:30.782Z,2.78
2023-05-06T15:49:17.823Z,3.15
2023-05-06T15:51:44.888Z,4.05
2023-05-06T15:54:11.736Z,1.98
2023-05-06T15:56:41.578Z,2.75
2023-05-06T15:59:08.845Z,2.13
2023-05-06T16:02:18.907Z,2.50
2023-05-06T16:04:23.654Z,3.28
2023-05-06T16:06:50.656Z,3.10
2023-05-06T16:09:17.998Z,2.50
2023-05-06T16:11:46.266Z,4.82
2023-05-06T16:14:13.162Z,2.60
2023-05-06T16:16:40.158Z,3.72
2023-05-06T16:19:07.671Z,4.07
2023-05-06T16:21:34.634Z,5.45
2023-05-06T16:24:02.539Z,3.97
2023-05-06T16:26:29.588Z,4.80
2023-05-06T16:28:59.565Z,2.45
2023-05-06T16:31:26.880Z,2.42
2023-05-06T16:33:53.775Z,3.63
2023-05-06T16:36:20.690Z,3.13
2023-05-06T16:38:47.708Z,2.72
2023-05-06T16:41:14.542Z,4.22
2023-05-06T16:43:41.569Z,4.68
2023-05-06T16:46:09.870Z,6.38
2023-05-06T16:48:36.821Z,4.68
2023-05-06T16:51:04.285Z,3.97
2023-05-06T16:53:31.151Z,2.88
2023-05-06T16:55:58.173Z,3.65
2023-05-06T16:58:25.156Z,3.50
2023-05-06T17:00:54.348Z,2.97
2023-05-06T17:03:25.794Z,4.85
2023-05-06T17:05:54.339Z,3.03
2023-05-06T17:08:24.389Z,2.58
2023-05-06T17:10:53.578Z,5.35
2023-05-06T17:13:20.587Z,5.75
2023-05-06T17:15:47.500Z,6.72
2023-05-06T17:18:14.442Z,4.30
2023-05-06T17:20:54.564Z,5.28
2023-05-06T17:23:22.496Z,4.22
2023-05-06T17:25:49.463Z,5.63
2023-05-06T17:28:17.372Z,6.70
2023-05-06T17:30:45.561Z,6.05
2023-05-06T17:33:12.854Z,6.80
2023-05-06T17:35:39.995Z,6.95
2023-05-06T17:38:09.612Z,6.28
2023-05-06T17:40:36.610Z,6.15
2023-05-06T17:43:03.810Z,9.77
2023-05-06T17:45:30.877Z,6.38
2023-05-06T17:47:57.804Z,8.55
2023-05-06T17:50:24.698Z,7.53
2023-05-06T17:52:52.970Z,5.95
2023-05-06T17:55:21.890Z,6.43
2023-05-06T17:57:49.247Z,6.15
2023-05-06T18:00:17.046Z,5.53
2023-05-06T18:02:44.390Z,5.50
2023-05-06T18:05:11.902Z,4.55
2023-05-06T18:07:39.298Z,7.35
2023-05-06T18:10:07.387Z,4.40
2023-05-06T18:12:35.763Z,5.43
2023-05-06T18:15:02.881Z,5.95
2023-05-06T18:17:29.815Z,4.22
2023-05-06T18:19:56.947Z,7.10
2023-05-06T18:22:23.848Z,8.15
2023-05-06T18:25:07.367Z,6.22
2023-05-06T18:27:36.120Z,5.85
2023-05-06T18:30:03.270Z,7.55
2023-05-06T18:32:30.481Z,4.85
2023-05-06T18:34:57.551Z,4.97
2023-05-06T18:37:24.494Z,5.82
2023-05-06T18:39:51.625Z,5.07
2023-05-06T18:42:18.727Z,7.80
2023-05-06T18:44:50.164Z,6.45
2023-05-06T18:47:17.632Z,8.18
2023-05-06T18:49:44.558Z,3.90
2023-05-06T18:52:14.499Z,4.65
2023-05-06T18:54:41.631Z,7.68
2023-05-06T18:57:09.064Z,6.57
2023-05-06T18:59:36.192Z,8.93
2023-05-06T19:02:05.770Z,10.52
2023-05-06T19:04:33.638Z,8.95
2023-05-06T19:07:01.180Z,7.57
2023-05-06T19:09:28.177Z,6.88
2023-05-06T19:11:55.822Z,8.90
2023-05-06T19:14:23.642Z,4.68
2023-05-06T19:16:52.366Z,4.30
2023-05-06T19:19:20.632Z,7.45
2023-05-06T19:21:47.542Z,6.15
2023-05-06T19:24:14.483Z,6.50
2023-05-06T19:26:41.479Z,6.47
2023-05-06T19:29:08.519Z,4.80
2023-05-06T19:31:35.663Z,7.93
2023-05-06T19:34:02.798Z,4.20
2023-05-06T19:36:31.801Z,4.60
2023-05-06T19:38:58.753Z,3.85
2023-05-06T19:41:25.824Z,4.40
2023-05-06T19:43:52.805Z,4.10
2023-05-06T19:46:19.752Z,3.15
2023-05-06T19:48:47.060Z,3.80
2023-05-06T19:51:13.977Z,5.82
2023-05-06T19:53:42.227Z,5.30
2023-05-06T19:56:09.688Z,5.45
2023-05-06T19:58:36.644Z,4.38
2023-05-06T20:01:03.689Z,5.25
2023-05-06T20:03:30.968Z,5.18
2023-05-06T20:05:57.979Z,6.43
2023-05-06T20:08:24.902Z,3.47
2023-05-06T20:10:53.385Z,3.53
2023-05-06T20:13:20.472Z,3.95
2023-05-06T20:15:47.649Z,2.45
2023-05-06T20:18:14.716Z,5.07
2023-05-06T20:20:42.067Z,3.78
2023-05-06T20:23:08.979Z,3.30
2023-05-06T20:25:37.324Z,5.80
2023-05-06T20:30:33.702Z,3.05
2023-05-06T20:33:01.153Z,3.90
2023-05-06T20:35:28.184Z,4.00
2023-05-06T20:37:55.844Z,3.22
2023-05-06T20:40:22.911Z,3.83
2023-05-06T20:42:49.772Z,4.15
2023-05-06T20:45:18.207Z,5.15
2023-05-06T20:47:45.143Z,5.80
2023-05-06T20:50:17.271Z,3.95
2023-05-06T20:52:45.755Z,5.13
2023-05-06T20:55:14.667Z,3.10
2023-05-06T20:57:42.368Z,5.80
2023-05-06T21:00:10.303Z,4.03
2023-05-06T21:02:41.180Z,5.85
2023-05-06T21:05:09.371Z,5.43
2023-05-06T21:07:36.536Z,5.47
2023-05-06T21:10:05.822Z,3.13
2023-05-06T21:12:33.320Z,4.00
2023-05-06T21:15:00.762Z,3.47
2023-05-06T21:17:28.307Z,3.33
2023-05-06T21:19:56.662Z,4.95
2023-05-06T21:22:24.038Z,5.10
2023-05-06T21:24:51.280Z,4.28
2023-05-06T21:27:18.359Z,3.30
2023-05-06T21:29:45.281Z,4.97
2023-05-06T21:32:12.337Z,5.40
2023-05-06T21:34:39.347Z,6.13
2023-05-06T21:37:07.778Z,4.40
2023-05-06T21:39:34.735Z,10.90
2023-05-06T21:42:01.708Z,3.33
2023-05-06T21:44:28.677Z,4.43
2023-05-06T21:46:55.631Z,4.43
2023-05-06T21:49:22.536Z,4.80
2023-05-06T21:51:49.535Z,4.28
2023-05-06T21:54:17.948Z,4.05
2023-05-06T21:59:11.654Z,5.88
2023-05-06T22:01:38.869Z,3.45
2023-05-06T22:04:11.110Z,6.25
2023-05-06T22:06:38.577Z,7.45
2023-05-06T22:09:09.299Z,3.95
2023-05-06T22:11:38.446Z,3.17
2023-05-06T22:14:06.591Z,4.78
2023-05-06T22:16:35.489Z,6.70
2023-05-06T22:19:03.913Z,4.22
2023-05-06T22:21:32.032Z,6.35
2023-05-06T22:23:59.165Z,4.82
2023-05-06T22:26:28.228Z,5.88
2023-05-06T22:28:56.969Z,6.55
2023-05-06T22:31:24.773Z,5.35
2023-05-06T22:33:57.854Z,3.30
2023-05-06T22:36:29.561Z,4.93
2023-05-06T22:38:56.597Z,3.80
2023-05-06T22:41:23.601Z,3.28
2023-05-06T22:43:50.644Z,3.47
2023-05-06T22:46:19.038Z,4.10
2023-05-06T22:51:17.803Z,4.65
2023-05-06T22:53:45.287Z,3.65
2023-05-06T22:56:12.156Z,5.95
2023-05-06T22:58:39.128Z,4.50
2023-05-06T23:01:07.415Z,4.88
2023-05-06T23:03:36.051Z,4.30
2023-05-06T23:06:04.497Z,3.13
2023-05-06T23:08:31.577Z,3.95
2023-05-06T23:10:58.452Z,4.18
2023-05-06T23:13:26.533Z,5.00
2023-05-06T23:15:53.698Z,3.22
2023-05-06T23:18:20.883Z,3.58
2023-05-06T23:20:49.264Z,4.65
2023-05-06T23:23:16.166Z,3.50
2023-05-06T23:25:43.050Z,3.63
2023-05-06T23:28:10.007Z,4.82
2023-05-06T23:30:36.909Z,5.63
2023-05-06T23:33:04.082Z,4.07
2023-05-06T23:35:31.050Z,2.65
2023-05-06T23:37:59.296Z,4.60
2023-05-06T23:40:26.305Z,5.38
2023-05-06T23:42:53.171Z,5.40
2023-05-06T23:45:20.491Z,6.80
2023-05-06T23:47:47.446Z,5.35
2023-05-06T23:50:14.682Z,4.50
2023-05-06T23:52:41.829Z,4.65
2023-05-06T23:55:10.525Z,3.40
2023-05-06T23:57:37.699Z,3.47
